This is the latest recevied weather packets stored in our database for station/object OM6ABF-11. If no packets are shown the sender has not sent any weather packets the latest 10 day(s).
| Time | Temp. | Humidity | Pressure | Rain* | Wind** | Luminosity | Snow |
|---|---|---|---|---|---|---|---|
| 1777938304 | 4.44° C | 71% | 1017.1 hPa | - | - | - | - |
| 1777937404 | 4.44° C | 72% | 1017.2 hPa | - | - | - | - |
| 1777936505 | 5° C | 71% | 1017.3 hPa | - | - | - | - |
| 1777935607 | 5° C | 71% | 1017.4 hPa | - | - | - | - |
| 1777934707 | 5.56° C | 66% | 1017.4 hPa | - | - | - | - |
| 1777933807 | 6.11° C | 64% | 1017.4 hPa | - | - | - | - |
| 1777932908 | 6.67° C | 62% | 1017.5 hPa | - | - | - | - |
| 1777932011 | 7.22° C | 60% | 1017.4 hPa | - | - | - | - |
| 1777931111 | 7.78° C | 60% | 1017.5 hPa | - | - | - | - |
| 1777930211 | 7.78° C | 59% | 1017.5 hPa | - | - | - | - |
| 1777929312 | 8.33° C | 59% | 1017.5 hPa | - | - | - | - |
| 1777928414 | 8.33° C | 58% | 1017.4 hPa | - | - | - | - |
| 1777927516 | 8.89° C | 57% | 1017.3 hPa | - | - | - | - |
| 1777926617 | 10.56° C | 49% | 1017.2 hPa | - | - | - | - |
| 1777925719 | 11.11° C | 46% | 1017.1 hPa | - | - | - | - |
| 1777924820 | 11.11° C | 47% | 1017 hPa | - | - | - | - |
| 1777923921 | 11.67° C | 43% | 1016.9 hPa | - | - | - | - |
| 1777923021 | 12.22° C | 43% | 1016.9 hPa | - | - | - | - |
| 1777922121 | 12.78° C | 40% | 1016.8 hPa | - | - | - | - |
| 1777921223 | 13.33° C | 39% | 1016.7 hPa | - | - | - | - |
| 1777920324 | 14.44° C | 38% | 1016.6 hPa | - | - | - | - |
| 1777919424 | 15° C | 36% | 1016.5 hPa | - | - | - | - |
| 1777918525 | 16.11° C | 34% | 1016.3 hPa | - | - | - | - |
| 1777917628 | 16.67° C | 31% | 1016.3 hPa | - | - | - | - |
| 1777916729 | 17.22° C | 31% | 1016.4 hPa | - | - | - | - |
* Rain since midnight (hover to see other rain measurements)
** Current wind speed in m/s (hover to see current wind gust speed)